DAL63 EGKK-KJFK
Flight info
| Callsign | DAL63 |
|---|---|
| Flight time | N/A |
| Altitude | 34000 |
| Route | IMVUR N63 SAM N19 ADKIK DCT MOPAT DCT MALOT/M080F350 NATE RIKAL/N0458F360 N572A TOPPS DCT ENE PARCH4 |
| Aircraft | B763/H-SDE3FGHIM3RWXY/LB1 |
Departure
| Time | 2026-05-05 12:48 |
|---|---|
| Airport | London Gatwick Airport (EGKK) |
Arrival
| Time | N/A |
|---|---|
| Airport | John F. Kennedy International Airport (KJFK) |
| Time | Latitude | Longitude | Altitude | Speed | Heading |
|---|---|---|---|---|---|
| 2026-05-05 12:11 | 51.15850 | -0.17520 | 200 ft | 0 kts | 347° |
| 2026-05-05 12:29 | 51.15836 | -0.17515 | 200 ft | 2 kts | 347° |
| 2026-05-05 12:29 | 51.15822 | -0.17510 | 200 ft | 2 kts | 347° |
| 2026-05-05 12:29 | 51.15812 | -0.17507 | 200 ft | 1 kts | 347° |
| 2026-05-05 12:29 | 51.15798 | -0.17499 | 200 ft | 2 kts | 329° |
| 2026-05-05 12:30 | 51.15786 | -0.17485 | 201 ft | 2 kts | 313° |
| 2026-05-05 12:30 | 51.15778 | -0.17466 | 201 ft | 2 kts | 297° |
| 2026-05-05 12:30 | 51.15772 | -0.17444 | 201 ft | 2 kts | 281° |
| 2026-05-05 12:30 | 51.15771 | -0.17421 | 201 ft | 2 kts | 264° |
| 2026-05-05 12:31 | 51.15773 | -0.17408 | 201 ft | 0 kts | 257° |
| 2026-05-05 12:34 | 51.15772 | -0.17414 | 201 ft | 1 kts | 257° |
| 2026-05-05 12:34 | 51.15768 | -0.17442 | 201 ft | 4 kts | 258° |
| 2026-05-05 12:34 | 51.15758 | -0.17515 | 201 ft | 8 kts | 258° |
| 2026-05-05 12:35 | 51.15745 | -0.17614 | 200 ft | 9 kts | 257° |
| 2026-05-05 12:35 | 51.15732 | -0.17705 | 200 ft | 7 kts | 258° |
| 2026-05-05 12:35 | 51.15722 | -0.17783 | 200 ft | 6 kts | 258° |
| 2026-05-05 12:35 | 51.15709 | -0.17871 | 201 ft | 9 kts | 257° |
| 2026-05-05 12:36 | 51.15695 | -0.17978 | 201 ft | 10 kts | 257° |
| 2026-05-05 12:36 | 51.15676 | -0.18104 | 201 ft | 12 kts | 257° |
| 2026-05-05 12:36 | 51.15658 | -0.18247 | 201 ft | 12 kts | 258° |
| 2026-05-05 12:36 | 51.15626 | -0.18350 | 201 ft | 8 kts | 202° |
| 2026-05-05 12:37 | 51.15561 | -0.18339 | 201 ft | 12 kts | 167° |
| 2026-05-05 12:37 | 51.15458 | -0.18303 | 202 ft | 17 kts | 168° |
| 2026-05-05 12:37 | 51.15352 | -0.18268 | 202 ft | 17 kts | 167° |
| 2026-05-05 12:37 | 51.15273 | -0.18239 | 203 ft | 4 kts | 167° |
| 2026-05-05 12:38 | 51.15238 | -0.18227 | 203 ft | 7 kts | 168° |
| 2026-05-05 12:38 | 51.15187 | -0.18267 | 203 ft | 12 kts | 243° |
| 2026-05-05 12:38 | 51.15163 | -0.18455 | 203 ft | 19 kts | 261° |
| 2026-05-05 12:38 | 51.15135 | -0.18677 | 203 ft | 20 kts | 258° |
| 2026-05-05 12:39 | 51.15106 | -0.18892 | 203 ft | 19 kts | 258° |
| 2026-05-05 12:39 | 51.15079 | -0.19089 | 203 ft | 17 kts | 257° |
| 2026-05-05 12:39 | 51.15055 | -0.19241 | 203 ft | 11 kts | 245° |
| 2026-05-05 12:39 | 51.15011 | -0.19269 | 203 ft | 7 kts | 178° |
| 2026-05-05 12:40 | 51.14963 | -0.19307 | 203 ft | 10 kts | 239° |
| 2026-05-05 12:40 | 51.14937 | -0.19461 | 204 ft | 17 kts | 258° |
| 2026-05-05 12:40 | 51.14912 | -0.19645 | 204 ft | 16 kts | 257° |
| 2026-05-05 12:40 | 51.14889 | -0.19814 | 204 ft | 14 kts | 258° |
| 2026-05-05 12:41 | 51.14867 | -0.19968 | 204 ft | 13 kts | 257° |
| 2026-05-05 12:41 | 51.14848 | -0.20106 | 204 ft | 12 kts | 259° |
| 2026-05-05 12:41 | 51.14825 | -0.20274 | 204 ft | 19 kts | 257° |
| 2026-05-05 12:41 | 51.14793 | -0.20506 | 205 ft | 21 kts | 258° |
| 2026-05-05 12:42 | 51.14762 | -0.20727 | 205 ft | 18 kts | 259° |
| 2026-05-05 12:42 | 51.14737 | -0.20917 | 206 ft | 16 kts | 257° |
| 2026-05-05 12:42 | 51.14713 | -0.21087 | 206 ft | 14 kts | 258° |
| 2026-05-05 12:42 | 51.14699 | -0.21191 | 207 ft | 2 kts | 258° |
| 2026-05-05 12:43 | 51.14698 | -0.21199 | 207 ft | 0 kts | 258° |
| 2026-05-05 12:44 | 51.14698 | -0.21201 | 207 ft | 0 kts | 258° |
| 2026-05-05 12:44 | 51.14691 | -0.21255 | 207 ft | 10 kts | 258° |
| 2026-05-05 12:45 | 51.14642 | -0.21335 | 207 ft | 10 kts | 179° |
| 2026-05-05 12:45 | 51.14555 | -0.21287 | 207 ft | 18 kts | 143° |
| 2026-05-05 12:45 | 51.14524 | -0.21133 | 207 ft | 10 kts | 74° |
| 2026-05-05 12:45 | 51.14526 | -0.21119 | 207 ft | 0 kts | 77° |
| 2026-05-05 12:46 | 51.14527 | -0.21110 | 206 ft | 7 kts | 77° |
| 2026-05-05 12:47 | 51.14572 | -0.20786 | 205 ft | 52 kts | 78° |
| 2026-05-05 12:47 | 51.14684 | -0.19977 | 204 ft | 96 kts | 77° |
| 2026-05-05 12:47 | 51.14858 | -0.18716 | 204 ft | 136 kts | 77° |
| 2026-05-05 12:47 | 51.15087 | -0.17038 | 212 ft | 173 kts | 75° |
| 2026-05-05 12:48 | 51.15353 | -0.15134 | 599 ft | 179 kts | 76° |
| 2026-05-05 12:48 | 51.15622 | -0.13219 | 1134 ft | 184 kts | 75° |
| 2026-05-05 12:48 | 51.15913 | -0.11137 | 1443 ft | 200 kts | 75° |
| 2026-05-05 12:48 | 51.16224 | -0.08858 | 1646 ft | 220 kts | 75° |
| 2026-05-05 12:49 | 51.16858 | -0.06668 | 2227 ft | 219 kts | 44° |
| 2026-05-05 12:49 | 51.18141 | -0.05464 | 2830 ft | 221 kts | 11° |
| 2026-05-05 12:49 | 51.19717 | -0.05510 | 3035 ft | 236 kts | 351° |
| 2026-05-05 12:49 | 51.21271 | -0.06403 | 2985 ft | 245 kts | 326° |
| 2026-05-05 12:50 | 51.22387 | -0.08518 | 3033 ft | 260 kts | 295° |
| 2026-05-05 12:50 | 51.22691 | -0.11441 | 3317 ft | 279 kts | 263° |
| 2026-05-05 12:50 | 51.22295 | -0.14421 | 4205 ft | 275 kts | 260° |
| 2026-05-05 12:50 | 51.21924 | -0.17421 | 4915 ft | 279 kts | 261° |
| 2026-05-05 12:51 | 51.21564 | -0.20436 | 5679 ft | 280 kts | 261° |
| 2026-05-05 12:51 | 51.21204 | -0.23485 | 6404 ft | 283 kts | 261° |
| 2026-05-05 12:51 | 51.20845 | -0.26563 | 7150 ft | 285 kts | 261° |
| 2026-05-05 12:51 | 51.20482 | -0.29670 | 7897 ft | 287 kts | 261° |
| 2026-05-05 12:52 | 51.20118 | -0.32798 | 8641 ft | 290 kts | 261° |
| 2026-05-05 12:52 | 51.19727 | -0.35994 | 8977 ft | 303 kts | 259° |
| 2026-05-05 12:52 | 51.19294 | -0.39291 | 8944 ft | 302 kts | 259° |
| 2026-05-05 12:52 | 51.18875 | -0.42491 | 8935 ft | 291 kts | 259° |
| 2026-05-05 12:53 | 51.18467 | -0.45609 | 8951 ft | 286 kts | 259° |
| 2026-05-05 12:53 | 51.18057 | -0.48749 | 9038 ft | 294 kts | 259° |
| 2026-05-05 12:53 | 51.17636 | -0.51940 | 9762 ft | 295 kts | 258° |
| 2026-05-05 12:53 | 51.16976 | -0.55025 | 10389 ft | 303 kts | 248° |
| 2026-05-05 12:54 | 51.15185 | -0.61798 | 10557 ft | 357 kts | 248° |
| 2026-05-05 12:54 | 51.14217 | -0.65457 | 11305 ft | 362 kts | 249° |
| 2026-05-05 12:54 | 51.13523 | -0.69336 | 11971 ft | 367 kts | 258° |
| 2026-05-05 12:55 | 51.12922 | -0.73298 | 12697 ft | 371 kts | 255° |
| 2026-05-05 12:55 | 51.12253 | -0.77269 | 13384 ft | 375 kts | 256° |
| 2026-05-05 12:55 | 51.11562 | -0.81276 | 14078 ft | 379 kts | 255° |
| 2026-05-05 12:55 | 51.10861 | -0.85316 | 14765 ft | 382 kts | 255° |
| 2026-05-05 12:56 | 51.10146 | -0.89398 | 15426 ft | 386 kts | 255° |
| 2026-05-05 12:56 | 51.09422 | -0.93511 | 16081 ft | 388 kts | 255° |
| 2026-05-05 12:56 | 51.08692 | -0.97642 | 16718 ft | 391 kts | 255° |
| 2026-05-05 12:56 | 51.07952 | -1.01814 | 17354 ft | 394 kts | 254° |
| 2026-05-05 12:57 | 51.07206 | -1.06019 | 17978 ft | 397 kts | 254° |
| 2026-05-05 12:57 | 51.06454 | -1.10236 | 18614 ft | 399 kts | 254° |
| 2026-05-05 12:57 | 51.05698 | -1.14474 | 19232 ft | 402 kts | 254° |
| 2026-05-05 12:57 | 51.04933 | -1.18749 | 19829 ft | 405 kts | 254° |
| 2026-05-05 12:58 | 51.04159 | -1.23065 | 20399 ft | 408 kts | 254° |
| 2026-05-05 12:58 | 51.03380 | -1.27400 | 20945 ft | 412 kts | 254° |
| 2026-05-05 12:58 | 51.02591 | -1.31777 | 21502 ft | 414 kts | 254° |
| 2026-05-05 12:58 | 51.02061 | -1.34710 | 21864 ft | 416 kts | 254° |
| 2026-05-05 12:59 | 51.00991 | -1.40625 | 22463 ft | 422 kts | 254° |
| 2026-05-05 12:59 | 51.00179 | -1.45099 | 22938 ft | 425 kts | 254° |
| 2026-05-05 12:59 | 50.99358 | -1.49606 | 23417 ft | 428 kts | 254° |
| 2026-05-05 13:00 | 50.97702 | -1.58681 | 24509 ft | 429 kts | 253° |
| 2026-05-05 13:00 | 50.96869 | -1.63224 | 24965 ft | 432 kts | 253° |
| 2026-05-05 13:01 | 50.94330 | -1.77003 | 26217 ft | 438 kts | 252° |
| 2026-05-05 13:01 | 50.93474 | -1.81623 | 26593 ft | 440 kts | 252° |
| 2026-05-05 13:01 | 50.92610 | -1.86277 | 26967 ft | 442 kts | 252° |
| 2026-05-05 13:01 | 50.91742 | -1.90940 | 27368 ft | 443 kts | 251° |
| 2026-05-05 13:02 | 50.90867 | -1.95630 | 27700 ft | 446 kts | 251° |
| 2026-05-05 13:02 | 50.89993 | -2.00302 | 28070 ft | 447 kts | 251° |
| 2026-05-05 13:02 | 50.89099 | -2.05067 | 28363 ft | 450 kts | 251° |
| 2026-05-05 13:02 | 50.88210 | -2.09799 | 28768 ft | 450 kts | 251° |
| 2026-05-05 13:03 | 50.87314 | -2.14554 | 29042 ft | 453 kts | 251° |
| 2026-05-05 13:03 | 50.86412 | -2.19326 | 29379 ft | 454 kts | 251° |
| 2026-05-05 13:03 | 50.85507 | -2.24105 | 29673 ft | 456 kts | 251° |
| 2026-05-05 13:03 | 50.84597 | -2.28895 | 29937 ft | 458 kts | 251° |
| 2026-05-05 13:04 | 50.83679 | -2.33716 | 30234 ft | 459 kts | 251° |
| 2026-05-05 13:04 | 50.82758 | -2.38543 | 30479 ft | 461 kts | 251° |
| 2026-05-05 13:04 | 50.81830 | -2.43392 | 30714 ft | 462 kts | 251° |
| 2026-05-05 13:04 | 50.80956 | -2.48264 | 30930 ft | 465 kts | 256° |
| 2026-05-05 13:05 | 50.80510 | -2.53351 | 31094 ft | 472 kts | 265° |
| 2026-05-05 13:05 | 50.80595 | -2.58544 | 31282 ft | 476 kts | 274° |
| 2026-05-05 13:05 | 50.81204 | -2.63703 | 31442 ft | 481 kts | 283° |
| 2026-05-05 13:05 | 50.82142 | -2.68767 | 31788 ft | 478 kts | 283° |
| 2026-05-05 13:06 | 50.83033 | -2.73811 | 31993 ft | 478 kts | 283° |
| 2026-05-05 13:06 | 50.83922 | -2.78854 | 32251 ft | 477 kts | 283° |
| 2026-05-05 13:06 | 50.84802 | -2.83891 | 32506 ft | 476 kts | 283° |
| 2026-05-05 13:06 | 50.85675 | -2.88918 | 32748 ft | 475 kts | 283° |
| 2026-05-05 13:07 | 50.86542 | -2.93932 | 32979 ft | 474 kts | 283° |
| 2026-05-05 13:07 | 50.87405 | -2.98943 | 33168 ft | 474 kts | 283° |
| 2026-05-05 13:07 | 50.88266 | -3.03951 | 33370 ft | 473 kts | 283° |
| 2026-05-05 13:07 | 50.89123 | -3.08956 | 33573 ft | 472 kts | 284° |
| 2026-05-05 13:08 | 50.89977 | -3.13963 | 33723 ft | 473 kts | 284° |
| 2026-05-05 13:08 | 50.90832 | -3.18983 | 33890 ft | 473 kts | 284° |
| 2026-05-05 13:08 | 50.92521 | -3.28946 | 33984 ft | 469 kts | 284° |
| 2026-05-05 13:09 | 50.94206 | -3.38947 | 33988 ft | 473 kts | 284° |
| 2026-05-05 13:09 | 50.95886 | -3.48972 | 33987 ft | 472 kts | 284° |
| 2026-05-05 13:10 | 50.97556 | -3.59003 | 33983 ft | 470 kts | 284° |
| 2026-05-05 13:10 | 50.99216 | -3.69022 | 33975 ft | 470 kts | 284° |
| 2026-05-05 13:11 | 51.00862 | -3.79026 | 33966 ft | 470 kts | 284° |
| 2026-05-05 13:11 | 51.02497 | -3.89017 | 33972 ft | 469 kts | 284° |
| 2026-05-05 13:12 | 51.04125 | -3.99022 | 33974 ft | 470 kts | 284° |
| 2026-05-05 13:12 | 51.05748 | -4.09060 | 33994 ft | 471 kts | 284° |
| 2026-05-05 13:13 | 51.07359 | -4.19084 | 33997 ft | 469 kts | 284° |
| 2026-05-05 13:13 | 51.08961 | -4.29109 | 34006 ft | 471 kts | 284° |
| 2026-05-05 13:14 | 51.10567 | -4.39220 | 34008 ft | 474 kts | 284° |
| 2026-05-05 13:14 | 51.12166 | -4.49354 | 34007 ft | 474 kts | 285° |
| 2026-05-05 13:15 | 51.13759 | -4.59513 | 34012 ft | 475 kts | 285° |
| 2026-05-05 13:15 | 51.15343 | -4.69679 | 34010 ft | 474 kts | 284° |
| 2026-05-05 13:16 | 51.16912 | -4.79804 | 34008 ft | 472 kts | 284° |
| 2026-05-05 13:16 | 51.18471 | -4.89925 | 34018 ft | 472 kts | 285° |
| 2026-05-05 13:17 | 51.20021 | -5.00061 | 34021 ft | 473 kts | 285° |
| 2026-05-05 13:17 | 51.21563 | -5.10204 | 34021 ft | 473 kts | 285° |
| 2026-05-05 13:18 | 51.23098 | -5.20366 | 34025 ft | 473 kts | 285° |
| 2026-05-05 13:18 | 51.24623 | -5.30529 | 34030 ft | 473 kts | 285° |
| 2026-05-05 13:19 | 51.26140 | -5.40703 | 34026 ft | 473 kts | 285° |
| 2026-05-05 13:19 | 51.27646 | -5.50870 | 34041 ft | 472 kts | 285° |
| 2026-05-05 13:20 | 51.29141 | -5.61026 | 34042 ft | 471 kts | 285° |
| 2026-05-05 13:20 | 51.30626 | -5.71180 | 34043 ft | 471 kts | 284° |
| 2026-05-05 13:21 | 51.32102 | -5.81343 | 34045 ft | 471 kts | 284° |
| 2026-05-05 13:21 | 51.33565 | -5.91481 | 34047 ft | 470 kts | 285° |
| 2026-05-05 13:22 | 51.35020 | -6.01628 | 34051 ft | 470 kts | 285° |
| 2026-05-05 13:22 | 51.36462 | -6.11758 | 34055 ft | 468 kts | 285° |
| 2026-05-05 13:23 | 51.37893 | -6.21872 | 34060 ft | 467 kts | 285° |
| 2026-05-05 13:23 | 51.39311 | -6.31962 | 34062 ft | 465 kts | 284° |
| 2026-05-05 13:24 | 51.40716 | -6.42031 | 34064 ft | 465 kts | 284° |
| 2026-05-05 13:24 | 51.42112 | -6.52101 | 34064 ft | 465 kts | 284° |
| 2026-05-05 13:25 | 51.43496 | -6.62154 | 34065 ft | 463 kts | 284° |
| 2026-05-05 13:25 | 51.44873 | -6.72221 | 34068 ft | 463 kts | 284° |
| 2026-05-05 13:26 | 51.46237 | -6.82268 | 34066 ft | 463 kts | 284° |
| 2026-05-05 13:26 | 51.47594 | -6.92331 | 34067 ft | 462 kts | 283° |
| 2026-05-05 13:27 | 51.48934 | -7.02334 | 34070 ft | 460 kts | 283° |
| 2026-05-05 13:27 | 51.50389 | -7.12259 | 34070 ft | 458 kts | 290° |
| 2026-05-05 13:28 | 51.52671 | -7.21765 | 34070 ft | 458 kts | 292° |
| 2026-05-05 13:28 | 51.54892 | -7.31309 | 34070 ft | 458 kts | 291° |
| 2026-05-05 13:29 | 51.57082 | -7.40870 | 34070 ft | 458 kts | 291° |
| 2026-05-05 13:29 | 51.59258 | -7.50452 | 34067 ft | 458 kts | 291° |
| 2026-05-05 13:30 | 51.61421 | -7.60033 | 34071 ft | 457 kts | 291° |
| 2026-05-05 13:30 | 51.63578 | -7.69628 | 34067 ft | 457 kts | 290° |
| 2026-05-05 13:31 | 51.65725 | -7.79226 | 34075 ft | 458 kts | 290° |
| 2026-05-05 13:31 | 51.67862 | -7.88826 | 34072 ft | 457 kts | 290° |
| 2026-05-05 13:32 | 51.69988 | -7.98418 | 34071 ft | 457 kts | 290° |
| 2026-05-05 13:32 | 51.72111 | -8.08040 | 34071 ft | 457 kts | 290° |
| 2026-05-05 13:33 | 51.74220 | -8.17645 | 34071 ft | 456 kts | 290° |
| 2026-05-05 13:33 | 51.76321 | -8.27256 | 34072 ft | 456 kts | 290° |
| 2026-05-05 13:34 | 51.78415 | -8.36882 | 34074 ft | 456 kts | 290° |
| 2026-05-05 13:34 | 51.80503 | -8.46522 | 34075 ft | 457 kts | 290° |
| 2026-05-05 13:35 | 51.82583 | -8.56175 | 34076 ft | 456 kts | 290° |
| 2026-05-05 13:35 | 51.84656 | -8.65841 | 34072 ft | 456 kts | 289° |
| 2026-05-05 13:36 | 51.86719 | -8.75505 | 34075 ft | 456 kts | 289° |
| 2026-05-05 13:36 | 51.88771 | -8.85162 | 34067 ft | 456 kts | 289° |
| 2026-05-05 13:37 | 51.90820 | -8.94852 | 34066 ft | 457 kts | 289° |
| 2026-05-05 13:37 | 51.92867 | -9.04581 | 34064 ft | 458 kts | 289° |
| 2026-05-05 13:38 | 51.94903 | -9.14298 | 34068 ft | 457 kts | 289° |
| 2026-05-05 13:38 | 51.96930 | -9.24024 | 34072 ft | 456 kts | 289° |
| 2026-05-05 13:39 | 51.98943 | -9.33729 | 34072 ft | 455 kts | 289° |
| 2026-05-05 13:39 | 52.00946 | -9.43436 | 34079 ft | 455 kts | 289° |
| 2026-05-05 13:40 | 52.02940 | -9.53144 | 34081 ft | 455 kts | 289° |
| 2026-05-05 13:40 | 52.04928 | -9.62869 | 34083 ft | 455 kts | 289° |
| 2026-05-05 13:41 | 52.06909 | -9.72612 | 34084 ft | 456 kts | 289° |
| 2026-05-05 13:41 | 52.08885 | -9.82375 | 34090 ft | 456 kts | 289° |
| 2026-05-05 13:42 | 52.10852 | -9.92143 | 34099 ft | 455 kts | 289° |
| 2026-05-05 13:42 | 52.12806 | -10.01894 | 34104 ft | 454 kts | 289° |
| 2026-05-05 13:43 | 52.14747 | -10.11628 | 34103 ft | 454 kts | 289° |
| 2026-05-05 13:43 | 52.16675 | -10.21351 | 34098 ft | 453 kts | 289° |
| 2026-05-05 13:44 | 52.18599 | -10.31095 | 34095 ft | 453 kts | 289° |
| 2026-05-05 13:44 | 52.20514 | -10.40847 | 34099 ft | 454 kts | 289° |
| 2026-05-05 13:45 | 52.22422 | -10.50613 | 34105 ft | 453 kts | 289° |
| 2026-05-05 13:45 | 52.24318 | -10.60369 | 34107 ft | 453 kts | 289° |
| 2026-05-05 13:46 | 52.26206 | -10.70125 | 34113 ft | 452 kts | 288° |
| 2026-05-05 13:46 | 52.28078 | -10.79858 | 34111 ft | 451 kts | 288° |
| 2026-05-05 13:47 | 52.29942 | -10.89595 | 34116 ft | 451 kts | 288° |
| 2026-05-05 13:47 | 52.31799 | -10.99346 | 34116 ft | 451 kts | 288° |
| 2026-05-05 13:48 | 52.33650 | -11.09110 | 34121 ft | 452 kts | 288° |
| 2026-05-05 13:48 | 52.35493 | -11.18889 | 34120 ft | 451 kts | 288° |
| 2026-05-05 13:49 | 52.37322 | -11.28641 | 34122 ft | 450 kts | 288° |
| 2026-05-05 13:49 | 52.39098 | -11.38165 | 34129 ft | 449 kts | 288° |
| 2026-05-05 13:50 | 52.40906 | -11.47907 | 34127 ft | 449 kts | 288° |
| 2026-05-05 13:50 | 52.42705 | -11.57650 | 34125 ft | 449 kts | 288° |
| 2026-05-05 13:51 | 52.44496 | -11.67406 | 34131 ft | 449 kts | 287° |
| 2026-05-05 13:51 | 52.46279 | -11.77164 | 34131 ft | 448 kts | 287° |
| 2026-05-05 13:52 | 52.48050 | -11.86911 | 34133 ft | 447 kts | 287° |
| 2026-05-05 13:52 | 52.49810 | -11.96651 | 34135 ft | 447 kts | 287° |
| 2026-05-05 13:53 | 52.51561 | -12.06395 | 34133 ft | 447 kts | 287° |
| 2026-05-05 13:53 | 52.53305 | -12.16145 | 34136 ft | 447 kts | 287° |
| 2026-05-05 13:54 | 52.55041 | -12.25906 | 34137 ft | 447 kts | 287° |
| 2026-05-05 13:54 | 52.56770 | -12.35685 | 34137 ft | 448 kts | 287° |
| 2026-05-05 13:55 | 52.58491 | -12.45465 | 34140 ft | 446 kts | 287° |
| 2026-05-05 13:55 | 52.60198 | -12.55223 | 34140 ft | 446 kts | 287° |
| 2026-05-05 13:56 | 52.61900 | -12.65003 | 34140 ft | 446 kts | 286° |
| 2026-05-05 13:56 | 52.63595 | -12.74797 | 34145 ft | 446 kts | 286° |
| 2026-05-05 13:57 | 52.65281 | -12.84595 | 34149 ft | 446 kts | 286° |
| 2026-05-05 13:57 | 52.66955 | -12.94384 | 34151 ft | 446 kts | 286° |
| 2026-05-05 13:58 | 52.68624 | -13.04192 | 34152 ft | 446 kts | 286° |
| 2026-05-05 13:58 | 52.70284 | -13.14002 | 34159 ft | 446 kts | 286° |
| 2026-05-05 13:59 | 52.72755 | -13.28708 | 34158 ft | 445 kts | 286° |
| 2026-05-05 14:00 | 52.74932 | -13.41767 | 34164 ft | 444 kts | 285° |
| 2026-05-05 14:00 | 52.76820 | -13.53178 | 34166 ft | 444 kts | 285° |
| 2026-05-05 14:01 | 52.78431 | -13.62973 | 34164 ft | 444 kts | 285° |
| 2026-05-05 14:01 | 52.80036 | -13.72787 | 34172 ft | 444 kts | 285° |
| 2026-05-05 14:02 | 52.81630 | -13.82592 | 34170 ft | 443 kts | 285° |
| 2026-05-05 14:02 | 52.83214 | -13.92390 | 34177 ft | 443 kts | 284° |
| 2026-05-05 14:03 | 52.84787 | -14.02177 | 34171 ft | 442 kts | 284° |
| 2026-05-05 14:03 | 52.86349 | -14.11960 | 34171 ft | 441 kts | 284° |
| 2026-05-05 14:04 | 52.87905 | -14.21755 | 34161 ft | 442 kts | 284° |
| 2026-05-05 14:04 | 52.89452 | -14.31554 | 34163 ft | 441 kts | 284° |
| 2026-05-05 14:05 | 52.90987 | -14.41336 | 34167 ft | 441 kts | 284° |
| 2026-05-05 14:05 | 52.92516 | -14.51138 | 34164 ft | 441 kts | 284° |
| 2026-05-05 14:06 | 52.94037 | -14.60940 | 34184 ft | 441 kts | 284° |
| 2026-05-05 14:06 | 52.95550 | -14.70759 | 34178 ft | 441 kts | 283° |
| 2026-05-05 14:07 | 52.97054 | -14.80576 | 34180 ft | 441 kts | 283° |
| 2026-05-05 14:07 | 52.98549 | -14.90387 | 34186 ft | 440 kts | 283° |
| 2026-05-05 14:08 | 53.00044 | -15.00197 | 34199 ft | 440 kts | 285° |
| 2026-05-05 14:08 | 53.02164 | -15.09706 | 34194 ft | 442 kts | 289° |
| 2026-05-05 14:09 | 53.04319 | -15.19219 | 34194 ft | 442 kts | 289° |
| 2026-05-05 14:09 | 53.06454 | -15.28746 | 34192 ft | 442 kts | 289° |
| 2026-05-05 14:10 | 53.08577 | -15.38278 | 34193 ft | 441 kts | 289° |
| 2026-05-05 14:10 | 53.10688 | -15.47811 | 34190 ft | 441 kts | 289° |
| 2026-05-05 14:11 | 53.12794 | -15.57369 | 34191 ft | 442 kts | 289° |
| 2026-05-05 14:11 | 53.14894 | -15.66938 | 34192 ft | 441 kts | 288° |
| 2026-05-05 14:12 | 53.16981 | -15.76499 | 34197 ft | 441 kts | 288° |
| 2026-05-05 14:12 | 53.19065 | -15.86088 | 34196 ft | 441 kts | 288° |
| 2026-05-05 14:13 | 53.21140 | -15.95679 | 34195 ft | 442 kts | 288° |
| 2026-05-05 14:13 | 53.23209 | -16.05286 | 34194 ft | 442 kts | 288° |
| 2026-05-05 14:14 | 53.25271 | -16.14912 | 34196 ft | 443 kts | 288° |
| 2026-05-05 14:14 | 53.27332 | -16.24573 | 34199 ft | 444 kts | 288° |
| 2026-05-05 14:15 | 53.29385 | -16.34244 | 34197 ft | 443 kts | 288° |
| 2026-05-05 14:15 | 53.31429 | -16.43919 | 34202 ft | 443 kts | 288° |
| 2026-05-05 14:16 | 53.33468 | -16.53620 | 34202 ft | 444 kts | 288° |
| 2026-05-05 14:16 | 53.35501 | -16.63337 | 34203 ft | 444 kts | 288° |
| 2026-05-05 14:17 | 53.37526 | -16.73059 | 34210 ft | 444 kts | 287° |
| 2026-05-05 14:17 | 53.39543 | -16.82793 | 34212 ft | 445 kts | 287° |
| 2026-05-05 14:18 | 53.41553 | -16.92541 | 34209 ft | 444 kts | 287° |
| 2026-05-05 14:18 | 53.43558 | -17.02312 | 34213 ft | 445 kts | 287° |
| 2026-05-05 14:19 | 53.45556 | -17.12097 | 34208 ft | 445 kts | 287° |
| 2026-05-05 14:19 | 53.47547 | -17.21899 | 34201 ft | 445 kts | 287° |
| 2026-05-05 14:20 | 53.49532 | -17.31716 | 34208 ft | 447 kts | 287° |
| 2026-05-05 14:20 | 53.51513 | -17.41566 | 34198 ft | 447 kts | 287° |
| 2026-05-05 14:21 | 53.53482 | -17.51403 | 34203 ft | 446 kts | 288° |
| 2026-05-05 14:21 | 53.55447 | -17.61268 | 34207 ft | 447 kts | 288° |
| 2026-05-05 14:22 | 53.57405 | -17.71150 | 34206 ft | 447 kts | 287° |
| 2026-05-05 14:22 | 53.59354 | -17.81038 | 34192 ft | 448 kts | 287° |
| 2026-05-05 14:23 | 53.61301 | -17.90967 | 34205 ft | 449 kts | 287° |
| 2026-05-05 14:23 | 53.63242 | -18.00915 | 34209 ft | 449 kts | 287° |
| 2026-05-05 14:24 | 53.65172 | -18.10856 | 34202 ft | 448 kts | 287° |
| 2026-05-05 14:24 | 53.67089 | -18.20787 | 34208 ft | 448 kts | 287° |
| 2026-05-05 14:25 | 53.69005 | -18.30760 | 34208 ft | 450 kts | 287° |
| 2026-05-05 14:25 | 53.70918 | -18.40773 | 34209 ft | 450 kts | 287° |
| 2026-05-05 14:26 | 53.72824 | -18.50796 | 34200 ft | 450 kts | 287° |
| 2026-05-05 14:26 | 53.74723 | -18.60836 | 34204 ft | 451 kts | 287° |
| 2026-05-05 14:27 | 53.76613 | -18.70889 | 34205 ft | 451 kts | 287° |
| 2026-05-05 14:27 | 53.78497 | -18.80961 | 34194 ft | 452 kts | 287° |
| 2026-05-05 14:28 | 53.80374 | -18.91051 | 34192 ft | 452 kts | 287° |
| 2026-05-05 14:28 | 53.82247 | -19.01172 | 34201 ft | 453 kts | 287° |
| 2026-05-05 14:29 | 53.84113 | -19.11309 | 34196 ft | 453 kts | 287° |
| 2026-05-05 14:29 | 53.85971 | -19.21458 | 34199 ft | 454 kts | 287° |
| 2026-05-05 14:30 | 53.87826 | -19.31652 | 34200 ft | 456 kts | 288° |
| 2026-05-05 14:30 | 53.89680 | -19.41895 | 34201 ft | 456 kts | 288° |
| 2026-05-05 14:31 | 53.91518 | -19.52103 | 34192 ft | 454 kts | 288° |
| 2026-05-05 14:31 | 53.93353 | -19.62349 | 34200 ft | 456 kts | 288° |
| 2026-05-05 14:32 | 53.95178 | -19.72607 | 34204 ft | 456 kts | 287° |
| 2026-05-05 14:32 | 53.96997 | -19.82879 | 34215 ft | 457 kts | 287° |
| 2026-05-05 14:33 | 53.98810 | -19.93186 | 34207 ft | 457 kts | 287° |
| 2026-05-05 14:33 | 53.99986 | -20.03744 | 34228 ft | 460 kts | 276° |
| 2026-05-05 14:34 | 54.00543 | -20.14550 | 34221 ft | 461 kts | 276° |
| 2026-05-05 14:34 | 54.01013 | -20.25370 | 34206 ft | 460 kts | 276° |
| 2026-05-05 14:35 | 54.01447 | -20.36182 | 34215 ft | 462 kts | 275° |
| 2026-05-05 14:35 | 54.01863 | -20.47026 | 34209 ft | 461 kts | 275° |
| 2026-05-05 14:36 | 54.02266 | -20.57836 | 34216 ft | 460 kts | 275° |
| 2026-05-05 14:36 | 54.02659 | -20.68652 | 34208 ft | 460 kts | 275° |
| 2026-05-05 14:37 | 54.03042 | -20.79472 | 34216 ft | 461 kts | 275° |
| 2026-05-05 14:37 | 54.03417 | -20.90312 | 34210 ft | 461 kts | 275° |
| 2026-05-05 14:38 | 54.03781 | -21.01155 | 34210 ft | 461 kts | 275° |
| 2026-05-05 14:38 | 54.04135 | -21.12002 | 34208 ft | 461 kts | 275° |
| 2026-05-05 14:39 | 54.04480 | -21.22856 | 34214 ft | 462 kts | 275° |
| 2026-05-05 14:39 | 54.04816 | -21.33716 | 34228 ft | 462 kts | 275° |
| 2026-05-05 14:40 | 54.05141 | -21.44563 | 34236 ft | 460 kts | 275° |
| 2026-05-05 14:40 | 54.05456 | -21.55400 | 34232 ft | 460 kts | 275° |
| 2026-05-05 14:41 | 54.05760 | -21.66220 | 34230 ft | 460 kts | 274° |
| 2026-05-05 14:41 | 54.06056 | -21.77057 | 34222 ft | 460 kts | 275° |
| 2026-05-05 14:42 | 54.06341 | -21.87868 | 34226 ft | 459 kts | 275° |
| 2026-05-05 14:42 | 54.06616 | -21.98684 | 34235 ft | 459 kts | 275° |
| 2026-05-05 14:43 | 54.06882 | -22.09504 | 34224 ft | 459 kts | 275° |
| 2026-05-05 14:43 | 54.07137 | -22.20311 | 34238 ft | 460 kts | 275° |
| 2026-05-05 14:44 | 54.07385 | -22.31172 | 34246 ft | 462 kts | 275° |
| 2026-05-05 14:44 | 54.07623 | -22.42066 | 34231 ft | 461 kts | 275° |
| 2026-05-05 14:45 | 54.07850 | -22.52899 | 34248 ft | 459 kts | 275° |
| 2026-05-05 14:45 | 54.08067 | -22.63737 | 34240 ft | 459 kts | 275° |
| 2026-05-05 14:46 | 54.08275 | -22.74567 | 34251 ft | 461 kts | 274° |
| 2026-05-05 14:46 | 54.08472 | -22.85422 | 34252 ft | 460 kts | 274° |
| 2026-05-05 14:47 | 54.08660 | -22.96265 | 34255 ft | 461 kts | 275° |
| 2026-05-05 14:47 | 54.08840 | -23.07137 | 34251 ft | 462 kts | 275° |
| 2026-05-05 14:48 | 54.09009 | -23.18044 | 34254 ft | 463 kts | 275° |
| 2026-05-05 14:48 | 54.09169 | -23.28962 | 34249 ft | 463 kts | 275° |
| 2026-05-05 14:49 | 54.09318 | -23.39868 | 34254 ft | 462 kts | 275° |
| 2026-05-05 14:49 | 54.09458 | -23.50758 | 34252 ft | 462 kts | 275° |
| 2026-05-05 14:50 | 54.09588 | -23.61660 | 34246 ft | 463 kts | 275° |
| 2026-05-05 14:50 | 54.09708 | -23.72577 | 34238 ft | 464 kts | 274° |
| 2026-05-05 14:51 | 54.09819 | -23.83543 | 34247 ft | 466 kts | 275° |
| 2026-05-05 14:51 | 54.09920 | -23.94540 | 34252 ft | 466 kts | 275° |
| 2026-05-05 14:52 | 54.10012 | -24.05549 | 34252 ft | 466 kts | 275° |
| 2026-05-05 14:52 | 54.10093 | -24.16550 | 34271 ft | 466 kts | 275° |
| 2026-05-05 14:53 | 54.10164 | -24.27520 | 34271 ft | 465 kts | 275° |
| 2026-05-05 14:53 | 54.10224 | -24.38486 | 34280 ft | 466 kts | 275° |
| 2026-05-05 14:54 | 54.10275 | -24.49465 | 34278 ft | 466 kts | 275° |
| 2026-05-05 14:54 | 54.10316 | -24.60468 | 34280 ft | 467 kts | 275° |
| 2026-05-05 14:55 | 54.10348 | -24.71477 | 34281 ft | 467 kts | 275° |
| 2026-05-05 14:55 | 54.10369 | -24.82520 | 34275 ft | 469 kts | 275° |
| 2026-05-05 14:56 | 54.10379 | -24.93583 | 34282 ft | 469 kts | 275° |
| 2026-05-05 14:56 | 54.10380 | -25.04638 | 34282 ft | 469 kts | 275° |
| 2026-05-05 14:57 | 54.10371 | -25.15705 | 34295 ft | 469 kts | 275° |
| 2026-05-05 14:57 | 54.10351 | -25.26760 | 34287 ft | 468 kts | 275° |
| 2026-05-05 14:58 | 54.10322 | -25.37803 | 34284 ft | 468 kts | 275° |
| 2026-05-05 14:58 | 54.10282 | -25.48860 | 34266 ft | 469 kts | 275° |
| 2026-05-05 14:59 | 54.10233 | -25.59932 | 34277 ft | 470 kts | 275° |
| 2026-05-05 14:59 | 54.10172 | -25.71037 | 34278 ft | 472 kts | 275° |
| 2026-05-05 15:00 | 54.10114 | -25.80324 | 34281 ft | 471 kts | 275° |
| 2026-05-05 15:00 | 54.10020 | -25.93318 | 34287 ft | 472 kts | 275° |
| 2026-05-05 15:01 | 54.09929 | -26.04422 | 34282 ft | 470 kts | 275° |
| 2026-05-05 15:01 | 54.09828 | -26.15497 | 34274 ft | 470 kts | 275° |
| 2026-05-05 15:02 | 54.09717 | -26.26615 | 34279 ft | 472 kts | 275° |
| 2026-05-05 15:02 | 54.09595 | -26.37718 | 34289 ft | 470 kts | 275° |
| 2026-05-05 15:03 | 54.09463 | -26.48783 | 34300 ft | 469 kts | 275° |
| 2026-05-05 15:03 | 54.09322 | -26.59835 | 34306 ft | 468 kts | 275° |
| 2026-05-05 15:04 | 54.09170 | -26.70881 | 34300 ft | 469 kts | 274° |
| 2026-05-05 15:04 | 54.09009 | -26.81938 | 34301 ft | 470 kts | 274° |
| 2026-05-05 15:05 | 54.08747 | -26.98508 | 34310 ft | 468 kts | 274° |
| 2026-05-05 15:06 | 54.08561 | -27.09541 | 34298 ft | 468 kts | 274° |
| 2026-05-05 15:06 | 54.08364 | -27.20541 | 34304 ft | 467 kts | 274° |
| 2026-05-05 15:07 | 54.08158 | -27.31540 | 34298 ft | 466 kts | 274° |
| 2026-05-05 15:07 | 54.07942 | -27.42519 | 34305 ft | 467 kts | 274° |
| 2026-05-05 15:08 | 54.07727 | -27.52987 | 34301 ft | 466 kts | 274° |
| 2026-05-05 15:08 | 54.07492 | -27.63954 | 34305 ft | 465 kts | 274° |
| 2026-05-05 15:09 | 54.07247 | -27.74927 | 34302 ft | 467 kts | 273° |
| 2026-05-05 15:09 | 54.06991 | -27.85927 | 34304 ft | 466 kts | 273° |
| 2026-05-05 15:10 | 54.06726 | -27.96871 | 34294 ft | 464 kts | 273° |
| 2026-05-05 15:10 | 54.06452 | -28.07787 | 34299 ft | 463 kts | 273° |
| 2026-05-05 15:11 | 54.06169 | -28.18672 | 34298 ft | 463 kts | 272° |
| 2026-05-05 15:11 | 54.05876 | -28.29554 | 34294 ft | 462 kts | 272° |
| 2026-05-05 15:12 | 54.05574 | -28.40407 | 34286 ft | 461 kts | 272° |
| 2026-05-05 15:12 | 54.05263 | -28.51247 | 34280 ft | 461 kts | 272° |
| 2026-05-05 15:13 | 54.04941 | -28.62096 | 34279 ft | 461 kts | 272° |
| 2026-05-05 15:13 | 54.04611 | -28.72925 | 34274 ft | 461 kts | 271° |
| 2026-05-05 15:14 | 54.04271 | -28.83752 | 34276 ft | 460 kts | 271° |
| 2026-05-05 15:14 | 54.03922 | -28.94547 | 34278 ft | 459 kts | 271° |
| 2026-05-05 15:15 | 54.03563 | -29.05337 | 34278 ft | 459 kts | 271° |
| 2026-05-05 15:15 | 54.03194 | -29.16141 | 34278 ft | 459 kts | 271° |
| 2026-05-05 15:16 | 54.02816 | -29.26928 | 34279 ft | 459 kts | 270° |
| 2026-05-05 15:16 | 54.02428 | -29.37727 | 34280 ft | 459 kts | 270° |
| 2026-05-05 15:17 | 54.02031 | -29.48508 | 34281 ft | 459 kts | 270° |
| 2026-05-05 15:17 | 54.01624 | -29.59295 | 34279 ft | 459 kts | 270° |
| 2026-05-05 15:18 | 54.01206 | -29.70086 | 34286 ft | 459 kts | 269° |
| 2026-05-05 15:18 | 54.00780 | -29.80875 | 34285 ft | 460 kts | 269° |
| 2026-05-05 15:19 | 54.00343 | -29.91669 | 34295 ft | 461 kts | 269° |
| 2026-05-05 15:19 | 53.99980 | -30.02494 | 34301 ft | 458 kts | 275° |
| 2026-05-05 15:20 | 54.00487 | -30.13172 | 34290 ft | 455 kts | 277° |
| 2026-05-05 15:20 | 54.00953 | -30.23840 | 34289 ft | 454 kts | 277° |
| 2026-05-05 15:21 | 54.01383 | -30.34522 | 34281 ft | 456 kts | 277° |
| 2026-05-05 15:21 | 54.01796 | -30.45241 | 34278 ft | 456 kts | 277° |
| 2026-05-05 15:22 | 54.02198 | -30.55951 | 34272 ft | 456 kts | 276° |
| 2026-05-05 15:22 | 54.02589 | -30.66673 | 34273 ft | 457 kts | 276° |
| 2026-05-05 15:23 | 54.02972 | -30.77433 | 34276 ft | 459 kts | 275° |
| 2026-05-05 15:23 | 54.03347 | -30.88239 | 34275 ft | 460 kts | 275° |
| 2026-05-05 15:24 | 54.03712 | -30.99057 | 34273 ft | 459 kts | 275° |
| 2026-05-05 15:24 | 54.04066 | -31.09849 | 34279 ft | 459 kts | 275° |
| 2026-05-05 15:25 | 54.04411 | -31.20638 | 34271 ft | 459 kts | 275° |
| 2026-05-05 15:25 | 54.04746 | -31.31433 | 34272 ft | 459 kts | 275° |
| 2026-05-05 15:26 | 54.05073 | -31.42253 | 34268 ft | 461 kts | 274° |
| 2026-05-05 15:26 | 54.05391 | -31.53108 | 34271 ft | 462 kts | 274° |
| 2026-05-05 15:27 | 54.05698 | -31.63969 | 34267 ft | 461 kts | 274° |
| 2026-05-05 15:27 | 54.05996 | -31.74828 | 34264 ft | 462 kts | 273° |
| 2026-05-05 15:28 | 54.06285 | -31.85699 | 34264 ft | 462 kts | 273° |
| 2026-05-05 15:28 | 54.06564 | -31.96583 | 34261 ft | 463 kts | 273° |
| 2026-05-05 15:29 | 54.06834 | -32.07494 | 34261 ft | 464 kts | 273° |
| 2026-05-05 15:29 | 54.07093 | -32.18396 | 34254 ft | 462 kts | 273° |
| 2026-05-05 15:30 | 54.07343 | -32.29279 | 34247 ft | 462 kts | 272° |
| 2026-05-05 15:30 | 54.07583 | -32.40161 | 34241 ft | 461 kts | 272° |
| 2026-05-05 15:31 | 54.07814 | -32.51024 | 34239 ft | 462 kts | 271° |
| 2026-05-05 15:31 | 54.08034 | -32.62019 | 34233 ft | 470 kts | 271° |
| 2026-05-05 15:32 | 54.08248 | -32.73141 | 34224 ft | 472 kts | 271° |
| 2026-05-05 15:32 | 54.08452 | -32.84225 | 34228 ft | 469 kts | 271° |
| 2026-05-05 15:33 | 54.08644 | -32.95292 | 34228 ft | 471 kts | 270° |
| 2026-05-05 15:33 | 54.08828 | -33.06398 | 34227 ft | 471 kts | 270° |
| 2026-05-05 15:34 | 54.09002 | -33.17524 | 34225 ft | 473 kts | 270° |
| 2026-05-05 15:34 | 54.09166 | -33.28709 | 34224 ft | 475 kts | 270° |
| 2026-05-05 15:35 | 54.09320 | -33.39885 | 34211 ft | 473 kts | 270° |
| 2026-05-05 15:35 | 54.09462 | -33.51033 | 34204 ft | 474 kts | 270° |
| 2026-05-05 15:36 | 54.09595 | -33.62212 | 34196 ft | 475 kts | 270° |
| 2026-05-05 15:36 | 54.09718 | -33.73408 | 34189 ft | 474 kts | 269° |
| 2026-05-05 15:37 | 54.09830 | -33.84609 | 34184 ft | 476 kts | 269° |
| 2026-05-05 15:37 | 54.09932 | -33.95833 | 34176 ft | 477 kts | 269° |
| 2026-05-05 15:38 | 54.10024 | -34.07098 | 34172 ft | 477 kts | 268° |
| 2026-05-05 15:38 | 54.10106 | -34.18380 | 34172 ft | 479 kts | 268° |
| 2026-05-05 15:39 | 54.10177 | -34.29705 | 34472 ft | 479 kts | 268° |
| 2026-05-05 15:39 | 54.10210 | -34.35359 | 34711 ft | 479 kts | 268° |
| 2026-05-05 15:39 | 54.10237 | -34.41009 | 34942 ft | 478 kts | 268° |
| 2026-05-05 15:39 | 54.10264 | -34.46637 | 35157 ft | 478 kts | 268° |
| 2026-05-05 15:40 | 54.10287 | -34.52261 | 35365 ft | 477 kts | 268° |
| 2026-05-05 15:40 | 54.10308 | -34.57874 | 35596 ft | 476 kts | 268° |
| 2026-05-05 15:40 | 54.10327 | -34.63499 | 35761 ft | 476 kts | 268° |
| 2026-05-05 15:40 | 54.10342 | -34.69100 | 35981 ft | 475 kts | 267° |
| 2026-05-05 15:41 | 54.10355 | -34.74703 | 36105 ft | 476 kts | 267° |
| 2026-05-05 15:41 | 54.10366 | -34.80307 | 36294 ft | 475 kts | 267° |
| 2026-05-05 15:41 | 54.10374 | -34.85909 | 36450 ft | 475 kts | 267° |
| 2026-05-05 15:41 | 54.10379 | -34.91503 | 36683 ft | 474 kts | 267° |
| 2026-05-05 15:42 | 54.10381 | -34.97097 | 36862 ft | 474 kts | 267° |
| 2026-05-05 15:42 | 54.10382 | -35.02673 | 37078 ft | 473 kts | 266° |
| 2026-05-05 15:42 | 54.10379 | -35.08260 | 37245 ft | 473 kts | 266° |
| 2026-05-05 15:42 | 54.10374 | -35.13829 | 37446 ft | 472 kts | 266° |
| 2026-05-05 15:43 | 54.10366 | -35.19397 | 37579 ft | 472 kts | 266° |
| 2026-05-05 15:43 | 54.10356 | -35.24955 | 37722 ft | 471 kts | 266° |
| 2026-05-05 15:43 | 54.10343 | -35.30510 | 37832 ft | 471 kts | 266° |
| 2026-05-05 15:43 | 54.10327 | -35.36065 | 37950 ft | 471 kts | 266° |
| 2026-05-05 15:44 | 54.10310 | -35.41609 | 38053 ft | 470 kts | 266° |
| 2026-05-05 15:44 | 54.10290 | -35.47153 | 38182 ft | 469 kts | 266° |
| 2026-05-05 15:44 | 54.10267 | -35.52687 | 38243 ft | 469 kts | 266° |
| 2026-05-05 15:45 | 54.10213 | -35.63754 | 38374 ft | 470 kts | 266° |
| 2026-05-05 15:45 | 54.10149 | -35.74843 | 38494 ft | 470 kts | 266° |
| 2026-05-05 15:45 | 54.10114 | -35.80380 | 38597 ft | 469 kts | 266° |
| 2026-05-05 15:46 | 54.10076 | -35.85900 | 38690 ft | 468 kts | 265° |
| 2026-05-05 15:46 | 54.09992 | -35.96919 | 38870 ft | 467 kts | 265° |
| 2026-05-05 15:47 | 54.09899 | -36.07940 | 38941 ft | 467 kts | 265° |
| 2026-05-05 15:47 | 54.09795 | -36.18938 | 39017 ft | 465 kts | 265° |
| 2026-05-05 15:48 | 54.09681 | -36.29907 | 38996 ft | 465 kts | 265° |
| 2026-05-05 15:48 | 54.09559 | -36.40876 | 38981 ft | 465 kts | 265° |
| 2026-05-05 15:49 | 54.09426 | -36.51850 | 38927 ft | 465 kts | 265° |
| 2026-05-05 15:49 | 54.09282 | -36.62821 | 38841 ft | 467 kts | 265° |
| 2026-05-05 15:50 | 54.09127 | -36.73865 | 38660 ft | 470 kts | 265° |
| 2026-05-05 15:50 | 54.08963 | -36.84966 | 38600 ft | 471 kts | 265° |
| 2026-05-05 15:50 | 54.08876 | -36.90521 | 38494 ft | 470 kts | 265° |
| 2026-05-05 15:51 | 54.08789 | -36.96028 | 38087 ft | 465 kts | 265° |
| 2026-05-05 15:51 | 54.08703 | -37.01403 | 38083 ft | 447 kts | 264° |
| 2026-05-05 15:51 | 54.08613 | -37.06668 | 38077 ft | 448 kts | 264° |
| 2026-05-05 15:52 | 54.08425 | -37.17248 | 38080 ft | 450 kts | 264° |
| 2026-05-05 15:52 | 54.08227 | -37.27902 | 38084 ft | 453 kts | 264° |
| 2026-05-05 15:53 | 54.08020 | -37.38615 | 38053 ft | 456 kts | 264° |
| 2026-05-05 15:53 | 54.07802 | -37.49370 | 38080 ft | 457 kts | 264° |
| 2026-05-05 15:54 | 54.07574 | -37.60161 | 38108 ft | 459 kts | 264° |
| 2026-05-05 15:54 | 54.07335 | -37.71011 | 38090 ft | 461 kts | 263° |
| 2026-05-05 15:55 | 54.07085 | -37.81889 | 38065 ft | 463 kts | 264° |
| 2026-05-05 15:55 | 54.06825 | -37.92798 | 38089 ft | 464 kts | 264° |
| 2026-05-05 15:56 | 54.06554 | -38.03719 | 38087 ft | 465 kts | 264° |
| 2026-05-05 15:56 | 54.06273 | -38.14691 | 38067 ft | 467 kts | 264° |
| 2026-05-05 15:57 | 54.05981 | -38.25688 | 38089 ft | 468 kts | 264° |
| 2026-05-05 15:57 | 54.05677 | -38.36726 | 38072 ft | 469 kts | 264° |
| 2026-05-05 15:58 | 54.05363 | -38.47786 | 38078 ft | 470 kts | 264° |
| 2026-05-05 15:58 | 54.05038 | -38.58858 | 38082 ft | 471 kts | 264° |
| 2026-05-05 15:59 | 54.04702 | -38.69952 | 38104 ft | 472 kts | 263° |
| 2026-05-05 15:59 | 54.04355 | -38.81075 | 38074 ft | 473 kts | 263° |
| 2026-05-05 16:00 | 54.03998 | -38.92198 | 38081 ft | 473 kts | 263° |
| 2026-05-05 16:00 | 54.03630 | -39.03315 | 38064 ft | 473 kts | 263° |
| 2026-05-05 16:01 | 54.03253 | -39.14434 | 38092 ft | 473 kts | 263° |
| 2026-05-05 16:01 | 54.02864 | -39.25559 | 38077 ft | 473 kts | 263° |
| 2026-05-05 16:02 | 54.02466 | -39.36675 | 38053 ft | 473 kts | 263° |
| 2026-05-05 16:02 | 54.02057 | -39.47790 | 38074 ft | 473 kts | 263° |
| 2026-05-05 16:03 | 54.01639 | -39.58892 | 38083 ft | 473 kts | 263° |
| 2026-05-05 16:03 | 54.01210 | -39.70003 | 38072 ft | 473 kts | 262° |
| 2026-05-05 16:04 | 54.00771 | -39.81114 | 38089 ft | 473 kts | 262° |
| 2026-05-05 16:04 | 54.00321 | -39.92219 | 38088 ft | 473 kts | 262° |
| 2026-05-05 16:05 | 53.99794 | -40.03310 | 38057 ft | 473 kts | 261° |
| 2026-05-05 16:05 | 53.99171 | -40.14379 | 38072 ft | 473 kts | 261° |
| 2026-05-05 16:06 | 53.98530 | -40.25450 | 38069 ft | 473 kts | 261° |
| 2026-05-05 16:06 | 53.97876 | -40.36518 | 38073 ft | 473 kts | 261° |
| 2026-05-05 16:07 | 53.97210 | -40.47607 | 38061 ft | 474 kts | 261° |
| 2026-05-05 16:07 | 53.96533 | -40.58704 | 38058 ft | 475 kts | 261° |
| 2026-05-05 16:08 | 53.95845 | -40.69795 | 38062 ft | 475 kts | 260° |
| 2026-05-05 16:08 | 53.95148 | -40.80859 | 38045 ft | 473 kts | 260° |
| 2026-05-05 16:09 | 53.94442 | -40.91918 | 38043 ft | 474 kts | 260° |
| 2026-05-05 16:09 | 53.93725 | -41.02985 | 38045 ft | 474 kts | 260° |
| 2026-05-05 16:10 | 53.92996 | -41.14058 | 38046 ft | 474 kts | 260° |
| 2026-05-05 16:10 | 53.92257 | -41.25138 | 38041 ft | 474 kts | 260° |
| 2026-05-05 16:11 | 53.91510 | -41.36190 | 38028 ft | 473 kts | 260° |
| 2026-05-05 16:12 | 53.89985 | -41.58261 | 38023 ft | 473 kts | 260° |
| 2026-05-05 16:13 | 53.88020 | -41.85869 | 38016 ft | 474 kts | 259° |
| 2026-05-05 16:13 | 53.87216 | -41.96908 | 38017 ft | 474 kts | 259° |
| 2026-05-05 16:14 | 53.85579 | -42.18957 | 38001 ft | 473 kts | 259° |
| 2026-05-05 16:15 | 53.83903 | -42.40956 | 38004 ft | 474 kts | 259° |
| 2026-05-05 16:16 | 53.82187 | -42.62952 | 37996 ft | 473 kts | 259° |
| 2026-05-05 16:17 | 53.80874 | -42.79423 | 37990 ft | 472 kts | 258° |
| 2026-05-05 16:18 | 53.79542 | -42.95850 | 37997 ft | 471 kts | 259° |
| 2026-05-05 16:19 | 53.78191 | -43.12212 | 37988 ft | 471 kts | 258° |
| 2026-05-05 16:19 | 53.76814 | -43.28615 | 37983 ft | 472 kts | 259° |
| 2026-05-05 16:20 | 53.74946 | -43.50436 | 37971 ft | 470 kts | 259° |
| 2026-05-05 16:22 | 53.72564 | -43.77592 | 37966 ft | 468 kts | 258° |
| 2026-05-05 16:23 | 53.70623 | -43.99193 | 37955 ft | 468 kts | 258° |
| 2026-05-05 16:23 | 53.69139 | -44.15411 | 37963 ft | 469 kts | 258° |
| 2026-05-05 16:24 | 53.68138 | -44.26213 | 37944 ft | 467 kts | 258° |
| 2026-05-05 16:25 | 53.66621 | -44.42370 | 37929 ft | 468 kts | 258° |
| 2026-05-05 16:25 | 53.65079 | -44.58560 | 37916 ft | 468 kts | 258° |
| 2026-05-05 16:26 | 53.62991 | -44.80094 | 37908 ft | 467 kts | 257° |
| 2026-05-05 16:27 | 53.61933 | -44.90859 | 37907 ft | 468 kts | 257° |
| 2026-05-05 16:27 | 53.60864 | -45.01621 | 37908 ft | 468 kts | 257° |
| 2026-05-05 16:28 | 53.59788 | -45.12357 | 37892 ft | 467 kts | 257° |
| 2026-05-05 16:28 | 53.58701 | -45.23100 | 37892 ft | 468 kts | 257° |
| 2026-05-05 16:29 | 53.57604 | -45.33834 | 37880 ft | 467 kts | 258° |
| 2026-05-05 16:29 | 53.56498 | -45.44571 | 37872 ft | 468 kts | 258° |
| 2026-05-05 16:30 | 53.55382 | -45.55295 | 37864 ft | 467 kts | 258° |
| 2026-05-05 16:30 | 53.54258 | -45.65999 | 37866 ft | 467 kts | 257° |
| 2026-05-05 16:31 | 53.53124 | -45.76703 | 37862 ft | 467 kts | 257° |
| 2026-05-05 16:31 | 53.51981 | -45.87407 | 37860 ft | 467 kts | 257° |
| 2026-05-05 16:32 | 53.50828 | -45.98100 | 37849 ft | 467 kts | 257° |
| 2026-05-05 16:32 | 53.49675 | -46.08693 | 37848 ft | 467 kts | 257° |
| 2026-05-05 16:33 | 53.48496 | -46.19433 | 37840 ft | 467 kts | 257° |
| 2026-05-05 16:33 | 53.47317 | -46.30094 | 37841 ft | 467 kts | 257° |
| 2026-05-05 16:34 | 53.46127 | -46.40751 | 37839 ft | 466 kts | 257° |
| 2026-05-05 16:34 | 53.44931 | -46.51376 | 37829 ft | 466 kts | 257° |
| 2026-05-05 16:35 | 53.43724 | -46.62004 | 37827 ft | 466 kts | 257° |
| 2026-05-05 16:35 | 53.42509 | -46.72623 | 37825 ft | 465 kts | 256° |
| 2026-05-05 16:36 | 53.41285 | -46.83217 | 37813 ft | 465 kts | 256° |
| 2026-05-05 16:36 | 53.40052 | -46.93811 | 37807 ft | 466 kts | 256° |
| 2026-05-05 16:37 | 53.38810 | -47.04401 | 37806 ft | 466 kts | 256° |
| 2026-05-05 16:37 | 53.37557 | -47.14985 | 37804 ft | 464 kts | 256° |
| 2026-05-05 16:38 | 53.36298 | -47.25545 | 37798 ft | 464 kts | 256° |
| 2026-05-05 16:38 | 53.35032 | -47.36081 | 37793 ft | 464 kts | 256° |
| 2026-05-05 16:39 | 53.33756 | -47.46607 | 37787 ft | 463 kts | 256° |
| 2026-05-05 16:39 | 53.32472 | -47.57127 | 37781 ft | 464 kts | 256° |
| 2026-05-05 16:40 | 53.31610 | -47.64138 | 37785 ft | 464 kts | 256° |